16 augustus 2022

Tijd Code Weer Temp. Zicht Plafond Wind METAR/SPECI
4:00 a.m.
V
64 °F 15 mi - 020° 020° 4 kt METAR CYYZ 160800Z 02004KT 15SM FEW100 FEW250 18/13 A3004 RMK AC1CI1 SLP174 DENSITY ALT 900FT
3:00 a.m.
V
64 °F 15 mi - 010° 010° 6 kt METAR CYYZ 160700Z 01006KT 15SM FEW100 FEW250 18/14 A3004 RMK AC1CI1 SLP174 DENSITY ALT 1000FT
2:00 a.m.
V
66 °F 15 mi - 010° 010° 6 kt METAR CYYZ 160600Z 01006KT 15SM FEW100 SCT250 19/14 A3004 RMK AC2CI1 SLP174 DENSITY ALT 1000FT
1:00 a.m.
V
68 °F 15 mi - 360° 360° 9 kt METAR CYYZ 160500Z 36009KT 15SM FEW120 FEW250 20/14 A3005 RMK AC1CI1 SLP176 DENSITY ALT 1100FT
12:00 a.m.
V
68 °F 15 mi - 360° 360° 11 kt METAR CYYZ 160400Z 36011KT 15SM FEW080 FEW130 SCT250 20/14 A3005 RMK AC1AC1CI1 SLP176 DENSITY ALT 1200FT

15 augustus 2022

Tijd Code Weer Temp. Zicht Plafond Wind METAR/SPECI
11:00 p.m.
V
70 °F 15 mi - 350° 350° 9 kt METAR CYYZ 160300Z 35009KT 15SM FEW080 SCT140 SCT250 21/14 A3005 RMK AC2AC1CI1 SLP176 DENSITY ALT 1300FT
10:00 p.m.
V
73 °F 15 mi 25.000 ft 350° 350° 11 kt METAR CYYZ 160200Z 35011KT 15SM FEW080 SCT140 BKN250 23/13 A3004 RMK AC1AC3CI2 AC TR SLP174 DENSITY ALT 1500FT
9:00 p.m.
V
73 °F 15 mi 25.000 ft Var 000° 0 kt METAR CYYZ 160100Z 00000KT 15SM FEW095 SCT130 BKN250 23/09 A3003 RMK AC1AC3CI2 SLP168 DENSITY ALT 1600FT
8:00 p.m.
V
75 °F 15 mi 25.000 ft 160° 160° 4 kt METAR CYYZ 160000Z 16004KT 15SM FEW060 FEW100 SCT140 BKN250 24/10 A3001 RMK CU1AC1AC3CI2 CU TR SLP163 DENSITY ALT 1700FT
7:00 p.m.
V
77 °F 15 mi 25.000 ft 150° 150° 4 kt METAR CYYZ 152300Z 15004KT 15SM FEW060 FEW100 SCT150 BKN250 25/10 A3000 RMK CU1AC1AC2CI3 CU TR SLP159 DENSITY ALT 1900FT
6:00 p.m.
V
79 °F 15 mi 25.000 ft 140° 140° 6 kt METAR CYYZ 152200Z 14006KT 15SM FEW055 FEW140 BKN250 26/10 A3000 RMK SC1AC1CI3 CONTRAILS SLP158 DENSITY ALT 1900FT
5:00 p.m.
V
79 °F 15 mi 25.000 ft 140° 140° 10 kt METAR CYYZ 152100Z 14010KT 15SM FEW050 FEW180 BKN250 26/09 A3000 RMK SC1AC1CI5 AC TR SLP158 DENSITY ALT 1900FT
4:00 p.m.
V
81 °F 15 mi - 110° 110° 9 - 15 kt METAR CYYZ 152000Z 11009G15KT 080V170 15SM FEW050 FEW180 SCT250 27/09 A3000 RMK CU1AC1CI2 AC TR SLP160 DENSITY ALT 2000FT
3:00 p.m.
V
81 °F 15 mi - 100° 100° 11 - 18 kt METAR CYYZ 151900Z 10011G18KT 15SM FEW050 FEW180 FEW250 27/09 A3001 RMK CU1AC1CI1 AC TR CONTRAILS SLP163 DENSITY ALT 2000FT
2:00 p.m.
V
79 °F 15 mi - 130° 130° 12 - 17 kt METAR CYYZ 151800Z 13012G17KT 15SM FEW050 FEW250 26/09 A3001 RMK CU1CI1 SLP164 DENSITY ALT 2000FT
1:00 p.m.
V
79 °F 15 mi - 080° 080° 6 - 16 kt METAR CYYZ 151700Z 08006G16KT 030V130 15SM FEW050 FEW180 FEW250 26/08 A3001 RMK CU1AC1CI2 CU TR AC TR CONTRAILS SLP164 DENSITY ALT 1900FT
12:00 p.m.
V
79 °F 15 mi - 080° 080° 10 - 16 kt METAR CYYZ 151600Z 08010G16KT 060V120 15SM FEW050 SCT140 SCT250 26/09 A3003 RMK CU1AC3CI1 CU TR SLP168 DENSITY ALT 1900FT
11:00 a.m.
V
77 °F 15 mi 13.000 ft 070° 070° 10 kt METAR CYYZ 151500Z 07010KT 15SM FEW050 FEW100 BKN130 BKN250 25/10 A3004 RMK CF1AC1AC5CI1 CF TR CI TR SLP172 DENSITY ALT 1700FT
10:00 a.m.
V
75 °F 15 mi 13.000 ft 070° 070° 8 kt METAR CYYZ 151400Z 07008KT 15SM BKN130 BKN250 24/10 A3003 RMK AC7CI1 CI TR SLP170 DENSITY ALT 1600FT
9:00 a.m.
V
70 °F 15 mi 12.000 ft 360° 360° 5 kt METAR CYYZ 151300Z 36005KT 15SM BKN120 BKN180 BKN250 21/11 A3004 RMK AC7AC1CI1 AC TR CI TR SLP172 DENSITY ALT 1400FT
8:00 a.m.
V
66 °F 15 mi 12.000 ft 010° 010° 6 kt METAR CYYZ 151200Z 01006KT 15SM BKN120 BKN180 BKN250 19/11 A3002 RMK AC5AC1CI1 AC TR CONTRAILS SLP166 DENSITY ALT 1200FT
7:00 a.m.
V
64 °F 15 mi - 010° 010° 5 kt METAR CYYZ 151100Z 01005KT 15SM FEW180 FEW250 18/10 A3001 RMK AC1CI1 AC TR SLP165 DENSITY ALT 1000FT
6:00 a.m.
V
63 °F 15 mi - 350° 350° 3 kt METAR CYYZ 151000Z 35003KT 15SM FEW220 17/10 A3000 RMK CI1 SLP160 DENSITY ALT 900FT
5:00 a.m.
V
64 °F 15 mi - 020° 020° 5 kt METAR CYYZ 150900Z 02005KT 15SM FEW140 18/10 A2999 RMK AC1 SLP156 DENSITY ALT 1000FT
4:00 a.m.
V
66 °F 15 mi 14.000 ft 350° 350° 4 kt METAR CYYZ 150800Z 35004KT 15SM BKN140 19/10 A3000 RMK AC5 SLP159 DENSITY ALT 1100FT
3:00 a.m.
V
68 °F 15 mi 13.000 ft 360° 360° 6 kt METAR CYYZ 150700Z 36006KT 15SM BKN130 20/11 A3001 RMK AC7 SLP162 DENSITY ALT 1200FT
2:00 a.m.
V
68 °F 15 mi 12.000 ft 360° 360° 5 kt METAR CYYZ 150600Z 36005KT 15SM BKN120 20/11 A3001 RMK AC7 SLP163 DENSITY ALT 1300FT
1:00 a.m.
V
68 °F 15 mi 13.000 ft 010° 010° 6 kt METAR CYYZ 150500Z 01006KT 15SM FEW078 BKN130 20/11 A3002 RMK AC1AC6 SLP165 DENSITY ALT 1300FT
12:00 a.m.
V
70 °F 15 mi 12.000 ft 060° 060° 4 kt METAR CYYZ 150400Z 06004KT 15SM BKN120 21/11 A3002 RMK AC7 SLP166 DENSITY ALT 1300FT

14 augustus 2022

Tijd Code Weer Temp. Zicht Plafond Wind METAR/SPECI
11:00 p.m.
V
70 °F 15 mi - 080° 080° 3 kt METAR CYYZ 150300Z 08003KT 15SM SCT140 SCT260 21/11 A3002 RMK AC2CI2 SLP166 DENSITY ALT 1300FT
10:00 p.m.
V
70 °F 15 mi - 080° 080° 3 kt METAR CYYZ 150200Z 08003KT 15SM SCT120 21/10 A3001 RMK AC3 SLP164 DENSITY ALT 1400FT
9:00 p.m.
V
72 °F 15 mi 12.000 ft 090° 090° 4 kt METAR CYYZ 150100Z 09004KT 15SM SCT078 BKN120 22/09 A3001 RMK AC3AC3 SLP162 DENSITY ALT 1400FT
8:00 p.m.
V
73 °F 15 mi 26.000 ft 130° 130° 5 kt METAR CYYZ 150000Z 13005KT 15SM FEW075 SCT140 BKN260 23/09 A3000 RMK AC2AC1CI3 SLP160 DENSITY ALT 1600FT
7:00 p.m.
V
77 °F 15 mi 13.000 ft 140° 140° 6 kt METAR CYYZ 142300Z 14006KT 080V160 15SM BKN130 BKN260 25/08 A3000 RMK AC6CI1 CI TR SLP158 DENSITY ALT 1800FT
6:00 p.m.
V
77 °F 15 mi 22.000 ft 110° 110° 7 kt METAR CYYZ 142200Z 11007KT 15SM FEW050 SCT130 BKN220 25/07 A3001 RMK CU1AC4CI1 CU TR SLP162 DENSITY ALT 1800FT
5:00 p.m.
V
79 °F 15 mi 14.000 ft 110° 110° 9 kt METAR CYYZ 142100Z 11009KT 15SM FEW050 BKN140 26/08 A3001 RMK CU1AC5 CU TR SLP162 DENSITY ALT 1900FT
4:00 p.m.
V
77 °F 15 mi 12.000 ft 140° 140° 11 - 16 kt METAR CYYZ 142000Z 14011G16KT 15SM FEW050 BKN120 25/08 A3001 RMK CU1AC4 SLP165 DENSITY ALT 1800FT
3:00 p.m.
V
79 °F 15 mi 12.000 ft 130° 130° 8 kt METAR CYYZ 141900Z 13008KT 100V170 15SM FEW050 BKN120 26/09 A3002 RMK CU2AC2 SLP166 DENSITY ALT 1900FT
2:00 p.m.
V
79 °F 15 mi 23.000 ft 130° 130° 6 kt METAR CYYZ 141800Z 13006KT 060V160 15SM FEW050 SCT140 BKN230 26/11 A3002 RMK CU1AC3CI1 CI TR SLP167 DENSITY ALT 1900FT
1:00 p.m.
V
77 °F 15 mi - 130° 130° 10 kt METAR CYYZ 141700Z 13010KT 110V170 15SM FEW050 SCT140 25/11 A3002 RMK CU1AC2 SLP167 DENSITY ALT 1800FT
12:00 p.m.
V
75 °F 15 mi 22.000 ft 130° 130° 8 kt METAR CYYZ 141600Z 13008KT 15SM FEW050 SCT140 BKN220 24/12 A3004 RMK CU1AC3CI1 CI TR SLP171 DENSITY ALT 1600FT
11:00 a.m.
V
75 °F 15 mi 14.000 ft 130° 130° 7 kt METAR CYYZ 141500Z 13007KT 15SM FEW050 BKN140 BKN220 24/12 A3004 RMK CF1AC5CI1 CF TR CI TR SLP174 DENSITY ALT 1600FT
10:00 a.m.
V
73 °F 15 mi 14.000 ft 120° 120° 6 kt METAR CYYZ 141400Z 12006KT 050V160 15SM BKN140 BKN160 23/13 A3005 RMK AC5AC1 AC TR SLP176 DENSITY ALT 1500FT
9:00 a.m.
V
70 °F 15 mi 12.000 ft 080° 080° 5 kt METAR CYYZ 141300Z 08005KT 340V110 15SM BKN120 21/12 A3005 RMK AC6 SLP177 DENSITY ALT 1300FT
8:00 a.m.
V
66 °F 15 mi 14.000 ft 010° 010° 3 kt METAR CYYZ 141200Z 01003KT 15SM BKN140 19/11 A3005 RMK AC6 SLP177 DENSITY ALT 1000FT
7:00 a.m.
V
64 °F 15 mi 14.000 ft 010° 010° 5 kt METAR CYYZ 141100Z 01005KT 15SM FEW120 BKN140 18/10 A3005 RMK AC2AC4 SLP177 DENSITY ALT 900FT
6:00 a.m.
V
61 °F 15 mi 13.000 ft 030° 030° 4 kt METAR CYYZ 141000Z 03004KT 15SM BKN130 16/10 A3005 RMK AC6 SLP176 DENSITY ALT 800FT
5:00 a.m.
V
61 °F 15 mi 12.000 ft 020° 020° 6 kt METAR CYYZ 140900Z 02006KT 15SM BKN120 16/11 A3005 RMK AC6 SLP177 DENSITY ALT 800FT
Oudere gegevens

Met cookies volgen wij en derde partijen jouw internetgedrag binnen onze site. Als je verdergaat gaan we ervan uit dat je dit goedvindt. Meer info